sensor_id;sensor_type;location;lat;lon;timestamp;P1;durP1;ratioP1;P2;durP2;ratioP2
75367;SDS011;63954;51.948;5.888;2022-11-20T00:00:23;19.42;;;8.88;;
75367;SDS011;63954;51.948;5.888;2022-11-20T00:02:51;18.95;;;10.07;;
75367;SDS011;63954;51.948;5.888;2022-11-20T00:05:18;17.17;;;8.80;;
75367;SDS011;63954;51.948;5.888;2022-11-20T00:07:46;19.85;;;10.40;;
75367;SDS011;63954;51.948;5.888;2022-11-20T00:10:13;16.23;;;7.63;;
75367;SDS011;63954;51.948;5.888;2022-11-20T00:12:42;19.08;;;8.57;;
75367;SDS011;63954;51.948;5.888;2022-11-20T00:15:09;18.60;;;8.35;;
75367;SDS011;63954;51.948;5.888;2022-11-20T00:17:37;16.48;;;8.48;;
75367;SDS011;63954;51.948;5.888;2022-11-20T00:20:04;12.38;;;6.93;;
75367;SDS011;63954;51.948;5.888;2022-11-20T00:22:32;18.60;;;8.80;;
75367;SDS011;63954;51.948;5.888;2022-11-20T00:24:59;15.55;;;8.05;;
75367;SDS011;63954;51.948;5.888;2022-11-20T00:27:26;19.92;;;9.48;;
75367;SDS011;63954;51.948;5.888;2022-11-20T00:29:55;15.23;;;7.47;;
75367;SDS011;63954;51.948;5.888;2022-11-20T00:32:22;14.75;;;7.72;;
75367;SDS011;63954;51.948;5.888;2022-11-20T00:34:49;17.20;;;9.13;;
75367;SDS011;63954;51.948;5.888;2022-11-20T00:37:16;16.40;;;8.13;;
75367;SDS011;63954;51.948;5.888;2022-11-20T00:39:45;15.85;;;8.52;;
75367;SDS011;63954;51.948;5.888;2022-11-20T00:42:13;18.08;;;8.95;;
75367;SDS011;63954;51.948;5.888;2022-11-20T00:44:40;16.48;;;8.98;;
75367;SDS011;63954;51.948;5.888;2022-11-20T00:47:08;18.23;;;8.85;;
75367;SDS011;63954;51.948;5.888;2022-11-20T00:49:36;18.30;;;9.18;;
75367;SDS011;63954;51.948;5.888;2022-11-20T00:52:03;18.67;;;8.95;;
75367;SDS011;63954;51.948;5.888;2022-11-20T00:54:31;16.45;;;8.77;;
75367;SDS011;63954;51.948;5.888;2022-11-20T00:56:58;21.23;;;9.32;;
75367;SDS011;63954;51.948;5.888;2022-11-20T00:59:25;18.08;;;9.30;;
75367;SDS011;63954;51.948;5.888;2022-11-20T01:01:52;16.20;;;8.07;;
75367;SDS011;63954;51.948;5.888;2022-11-20T01:04:21;20.08;;;9.23;;
75367;SDS011;63954;51.948;5.888;2022-11-20T01:06:48;19.92;;;8.80;;
75367;SDS011;63954;51.948;5.888;2022-11-20T01:09:15;23.20;;;12.63;;
75367;SDS011;63954;51.948;5.888;2022-11-20T01:11:44;21.55;;;8.60;;
75367;SDS011;63954;51.948;5.888;2022-11-20T01:14:19;19.08;;;10.40;;
75367;SDS011;63954;51.948;5.888;2022-11-20T01:16:47;20.58;;;9.23;;
75367;SDS011;63954;51.948;5.888;2022-11-20T01:19:16;19.30;;;9.13;;
75367;SDS011;63954;51.948;5.888;2022-11-20T01:21:47;17.48;;;8.75;;
75367;SDS011;63954;51.948;5.888;2022-11-20T01:24:16;19.90;;;9.98;;
75367;SDS011;63954;51.948;5.888;2022-11-20T01:26:46;18.67;;;10.52;;
75367;SDS011;63954;51.948;5.888;2022-11-20T01:29:15;15.85;;;8.20;;
75367;SDS011;63954;51.948;5.888;2022-11-20T01:31:43;17.33;;;8.80;;
75367;SDS011;63954;51.948;5.888;2022-11-20T01:34:11;18.55;;;8.73;;
75367;SDS011;63954;51.948;5.888;2022-11-20T01:36:41;14.75;;;7.53;;
75367;SDS011;63954;51.948;5.888;2022-11-20T01:39:11;15.13;;;6.35;;
75367;SDS011;63954;51.948;5.888;2022-11-20T01:41:40;16.70;;;8.48;;
75367;SDS011;63954;51.948;5.888;2022-11-20T01:47:16;18.42;;;8.85;;
75367;SDS011;63954;51.948;5.888;2022-11-20T01:49:47;17.95;;;9.35;;
75367;SDS011;63954;51.948;5.888;2022-11-20T01:52:19;18.60;;;8.35;;
75367;SDS011;63954;51.948;5.888;2022-11-20T01:54:52;20.13;;;8.35;;
75367;SDS011;63954;51.948;5.888;2022-11-20T01:57:22;20.55;;;9.60;;
75367;SDS011;63954;51.948;5.888;2022-11-20T01:59:54;12.48;;;6.88;;
75367;SDS011;63954;51.948;5.888;2022-11-20T02:02:26;17.52;;;8.63;;
75367;SDS011;63954;51.948;5.888;2022-11-20T02:04:54;17.52;;;8.52;;
75367;SDS011;63954;51.948;5.888;2022-11-20T02:07:27;16.08;;;8.15;;
75367;SDS011;63954;51.948;5.888;2022-11-20T02:09:56;16.58;;;7.47;;
75367;SDS011;63954;51.948;5.888;2022-11-20T02:12:23;14.35;;;7.30;;
75367;SDS011;63954;51.948;5.888;2022-11-20T02:15:08;21.23;;;9.50;;
75367;SDS011;63954;51.948;5.888;2022-11-20T02:17:37;19.10;;;9.43;;
75367;SDS011;63954;51.948;5.888;2022-11-20T02:20:05;20.77;;;10.50;;
75367;SDS011;63954;51.948;5.888;2022-11-20T02:22:35;17.52;;;8.15;;
75367;SDS011;63954;51.948;5.888;2022-11-20T02:25:09;21.63;;;10.30;;
75367;SDS011;63954;51.948;5.888;2022-11-20T02:27:37;20.10;;;10.27;;
75367;SDS011;63954;51.948;5.888;2022-11-20T02:30:04;17.58;;;8.55;;
75367;SDS011;63954;51.948;5.888;2022-11-20T02:32:34;17.85;;;8.43;;
75367;SDS011;63954;51.948;5.888;2022-11-20T02:35:06;16.75;;;8.73;;
75367;SDS011;63954;51.948;5.888;2022-11-20T02:37:35;18.27;;;9.10;;
75367;SDS011;63954;51.948;5.888;2022-11-20T02:40:06;20.83;;;10.02;;
75367;SDS011;63954;51.948;5.888;2022-11-20T02:42:35;19.67;;;9.00;;
75367;SDS011;63954;51.948;5.888;2022-11-20T02:45:03;20.17;;;9.25;;
75367;SDS011;63954;51.948;5.888;2022-11-20T02:47:31;18.63;;;8.07;;
75367;SDS011;63954;51.948;5.888;2022-11-20T02:49:58;15.20;;;6.53;;
75367;SDS011;63954;51.948;5.888;2022-11-20T02:52:26;22.27;;;9.68;;
75367;SDS011;63954;51.948;5.888;2022-11-20T02:54:53;19.55;;;10.02;;
75367;SDS011;63954;51.948;5.888;2022-11-20T02:57:20;16.40;;;7.00;;
75367;SDS011;63954;51.948;5.888;2022-11-20T02:59:48;22.90;;;10.48;;
75367;SDS011;63954;51.948;5.888;2022-11-20T03:02:16;19.27;;;8.55;;
75367;SDS011;63954;51.948;5.888;2022-11-20T03:04:43;19.77;;;9.63;;
75367;SDS011;63954;51.948;5.888;2022-11-20T03:07:10;19.38;;;8.73;;
75367;SDS011;63954;51.948;5.888;2022-11-20T03:09:37;18.08;;;9.20;;
75367;SDS011;63954;51.948;5.888;2022-11-20T03:12:05;16.00;;;7.90;;
75367;SDS011;63954;51.948;5.888;2022-11-20T03:14:32;17.30;;;9.27;;
75367;SDS011;63954;51.948;5.888;2022-11-20T03:17:02;20.27;;;9.32;;
75367;SDS011;63954;51.948;5.888;2022-11-20T03:19:29;18.95;;;8.55;;
75367;SDS011;63954;51.948;5.888;2022-11-20T03:21:56;16.88;;;8.73;;
75367;SDS011;63954;51.948;5.888;2022-11-20T03:24:24;13.55;;;6.75;;
75367;SDS011;63954;51.948;5.888;2022-11-20T03:26:51;20.98;;;9.13;;
75367;SDS011;63954;51.948;5.888;2022-11-20T03:29:18;15.70;;;8.48;;
75367;SDS011;63954;51.948;5.888;2022-11-20T03:31:45;18.17;;;8.90;;
75367;SDS011;63954;51.948;5.888;2022-11-20T03:34:14;15.10;;;7.30;;
75367;SDS011;63954;51.948;5.888;2022-11-20T03:36:42;19.45;;;9.85;;
75367;SDS011;63954;51.948;5.888;2022-11-20T03:39:09;15.30;;;8.38;;
75367;SDS011;63954;51.948;5.888;2022-11-20T03:41:37;16.25;;;8.07;;
75367;SDS011;63954;51.948;5.888;2022-11-20T03:44:07;16.25;;;7.10;;
75367;SDS011;63954;51.948;5.888;2022-11-20T03:46:36;19.17;;;8.80;;
75367;SDS011;63954;51.948;5.888;2022-11-20T03:49:03;17.95;;;8.50;;
75367;SDS011;63954;51.948;5.888;2022-11-20T03:51:32;14.63;;;7.40;;
75367;SDS011;63954;51.948;5.888;2022-11-20T03:54:02;14.77;;;6.25;;
75367;SDS011;63954;51.948;5.888;2022-11-20T03:56:31;16.88;;;8.02;;
75367;SDS011;63954;51.948;5.888;2022-11-20T03:59:00;16.73;;;8.27;;
75367;SDS011;63954;51.948;5.888;2022-11-20T04:01:28;23.45;;;9.55;;
75367;SDS011;63954;51.948;5.888;2022-11-20T04:03:58;17.27;;;8.35;;
75367;SDS011;63954;51.948;5.888;2022-11-20T04:06:26;16.40;;;8.45;;
75367;SDS011;63954;51.948;5.888;2022-11-20T04:08:56;14.75;;;7.30;;
75367;SDS011;63954;51.948;5.888;2022-11-20T04:13:52;18.13;;;8.38;;
75367;SDS011;63954;51.948;5.888;2022-11-20T04:16:22;19.00;;;9.52;;
75367;SDS011;63954;51.948;5.888;2022-11-20T04:18:51;16.98;;;8.57;;
75367;SDS011;63954;51.948;5.888;2022-11-20T04:21:19;18.55;;;8.40;;
75367;SDS011;63954;51.948;5.888;2022-11-20T04:23:47;17.13;;;8.95;;
75367;SDS011;63954;51.948;5.888;2022-11-20T04:26:16;19.75;;;9.90;;
75367;SDS011;63954;51.948;5.888;2022-11-20T04:28:43;18.77;;;8.40;;
75367;SDS011;63954;51.948;5.888;2022-11-20T04:31:11;20.08;;;8.85;;
75367;SDS011;63954;51.948;5.888;2022-11-20T04:33:40;16.98;;;8.25;;
75367;SDS011;63954;51.948;5.888;2022-11-20T04:36:10;16.25;;;8.30;;
75367;SDS011;63954;51.948;5.888;2022-11-20T04:38:39;17.98;;;8.50;;
75367;SDS011;63954;51.948;5.888;2022-11-20T04:41:07;17.58;;;7.78;;
75367;SDS011;63954;51.948;5.888;2022-11-20T04:43:40;15.40;;;7.70;;
75367;SDS011;63954;51.948;5.888;2022-11-20T04:46:07;18.17;;;9.43;;
75367;SDS011;63954;51.948;5.888;2022-11-20T04:48:35;18.77;;;7.90;;
75367;SDS011;63954;51.948;5.888;2022-11-20T04:51:02;22.30;;;8.80;;
75367;SDS011;63954;51.948;5.888;2022-11-20T04:53:30;16.65;;;7.75;;
75367;SDS011;63954;51.948;5.888;2022-11-20T04:55:59;17.15;;;8.70;;
75367;SDS011;63954;51.948;5.888;2022-11-20T04:58:27;19.02;;;9.13;;
75367;SDS011;63954;51.948;5.888;2022-11-20T05:01:01;15.32;;;8.65;;
75367;SDS011;63954;51.948;5.888;2022-11-20T05:03:29;16.98;;;7.93;;
75367;SDS011;63954;51.948;5.888;2022-11-20T05:05:59;19.23;;;8.60;;
75367;SDS011;63954;51.948;5.888;2022-11-20T05:08:27;21.15;;;8.57;;
75367;SDS011;63954;51.948;5.888;2022-11-20T05:10:59;17.55;;;8.63;;
75367;SDS011;63954;51.948;5.888;2022-11-20T05:13:27;13.63;;;7.15;;
75367;SDS011;63954;51.948;5.888;2022-11-20T05:15:55;15.45;;;8.52;;
75367;SDS011;63954;51.948;5.888;2022-11-20T05:18:24;15.85;;;7.25;;
75367;SDS011;63954;51.948;5.888;2022-11-20T05:20:54;19.95;;;8.77;;
75367;SDS011;63954;51.948;5.888;2022-11-20T05:23:23;19.85;;;8.90;;
75367;SDS011;63954;51.948;5.888;2022-11-20T05:25:51;19.27;;;8.60;;
75367;SDS011;63954;51.948;5.888;2022-11-20T05:28:20;17.80;;;8.02;;
75367;SDS011;63954;51.948;5.888;2022-11-20T05:30:47;15.60;;;8.13;;
75367;SDS011;63954;51.948;5.888;2022-11-20T05:33:14;21.10;;;9.93;;
75367;SDS011;63954;51.948;5.888;2022-11-20T05:35:43;15.27;;;8.57;;
75367;SDS011;63954;51.948;5.888;2022-11-20T05:38:10;18.17;;;9.07;;
75367;SDS011;63954;51.948;5.888;2022-11-20T05:40:38;19.73;;;9.15;;
75367;SDS011;63954;51.948;5.888;2022-11-20T05:43:05;17.50;;;8.02;;
75367;SDS011;63954;51.948;5.888;2022-11-20T05:45:32;18.92;;;8.43;;
75367;SDS011;63954;51.948;5.888;2022-11-20T05:47:59;22.27;;;9.98;;
75367;SDS011;63954;51.948;5.888;2022-11-20T05:50:27;20.08;;;9.93;;
75367;SDS011;63954;51.948;5.888;2022-11-20T05:52:57;21.77;;;9.40;;
75367;SDS011;63954;51.948;5.888;2022-11-20T05:55:24;16.63;;;7.47;;
75367;SDS011;63954;51.948;5.888;2022-11-20T05:57:52;18.10;;;8.57;;
75367;SDS011;63954;51.948;5.888;2022-11-20T06:00:20;22.63;;;10.85;;
75367;SDS011;63954;51.948;5.888;2022-11-20T06:02:47;22.23;;;9.65;;
75367;SDS011;63954;51.948;5.888;2022-11-20T06:05:15;21.70;;;9.45;;
75367;SDS011;63954;51.948;5.888;2022-11-20T06:07:42;20.92;;;10.05;;
75367;SDS011;63954;51.948;5.888;2022-11-20T06:10:11;16.90;;;9.23;;
75367;SDS011;63954;51.948;5.888;2022-11-20T06:12:38;21.80;;;9.70;;
75367;SDS011;63954;51.948;5.888;2022-11-20T06:15:06;18.27;;;9.52;;
75367;SDS011;63954;51.948;5.888;2022-11-20T06:17:34;19.42;;;9.02;;
75367;SDS011;63954;51.948;5.888;2022-11-20T06:20:01;17.15;;;9.32;;
75367;SDS011;63954;51.948;5.888;2022-11-20T06:22:29;15.65;;;6.50;;
75367;SDS011;63954;51.948;5.888;2022-11-20T06:24:57;18.23;;;9.23;;
75367;SDS011;63954;51.948;5.888;2022-11-20T06:27:26;19.20;;;8.82;;
75367;SDS011;63954;51.948;5.888;2022-11-20T06:29:53;17.67;;;8.68;;
75367;SDS011;63954;51.948;5.888;2022-11-20T06:32:21;13.88;;;7.72;;
75367;SDS011;63954;51.948;5.888;2022-11-20T06:34:48;17.77;;;9.15;;
75367;SDS011;63954;51.948;5.888;2022-11-20T06:37:15;20.77;;;9.82;;
75367;SDS011;63954;51.948;5.888;2022-11-20T06:39:42;21.00;;;9.23;;
75367;SDS011;63954;51.948;5.888;2022-11-20T06:42:09;23.75;;;11.65;;
75367;SDS011;63954;51.948;5.888;2022-11-20T06:44:38;15.75;;;7.63;;
75367;SDS011;63954;51.948;5.888;2022-11-20T06:47:05;19.10;;;8.13;;
75367;SDS011;63954;51.948;5.888;2022-11-20T06:49:33;19.15;;;9.55;;
75367;SDS011;63954;51.948;5.888;2022-11-20T06:52:04;18.17;;;8.75;;
75367;SDS011;63954;51.948;5.888;2022-11-20T06:54:31;21.65;;;8.85;;
75367;SDS011;63954;51.948;5.888;2022-11-20T06:56:58;17.38;;;8.55;;
75367;SDS011;63954;51.948;5.888;2022-11-20T06:59:25;20.20;;;10.13;;
75367;SDS011;63954;51.948;5.888;2022-11-20T07:01:54;16.45;;;8.52;;
75367;SDS011;63954;51.948;5.888;2022-11-20T07:04:21;23.70;;;10.93;;
75367;SDS011;63954;51.948;5.888;2022-11-20T07:06:48;16.65;;;8.57;;
75367;SDS011;63954;51.948;5.888;2022-11-20T07:09:15;19.30;;;10.15;;
75367;SDS011;63954;51.948;5.888;2022-11-20T07:11:43;20.63;;;10.23;;
75367;SDS011;63954;51.948;5.888;2022-11-20T07:14:10;20.27;;;9.55;;
75367;SDS011;63954;51.948;5.888;2022-11-20T07:16:37;16.23;;;8.50;;
75367;SDS011;63954;51.948;5.888;2022-11-20T07:19:06;16.60;;;8.48;;
75367;SDS011;63954;51.948;5.888;2022-11-20T07:21:33;19.20;;;9.10;;
75367;SDS011;63954;51.948;5.888;2022-11-20T07:24:00;17.40;;;8.65;;
75367;SDS011;63954;51.948;5.888;2022-11-20T07:26:27;16.88;;;8.38;;
75367;SDS011;63954;51.948;5.888;2022-11-20T07:28:54;22.45;;;9.30;;
75367;SDS011;63954;51.948;5.888;2022-11-20T07:31:22;25.63;;;11.45;;
75367;SDS011;63954;51.948;5.888;2022-11-20T07:33:49;22.10;;;10.88;;
75367;SDS011;63954;51.948;5.888;2022-11-20T07:36:18;22.80;;;12.30;;
75367;SDS011;63954;51.948;5.888;2022-11-20T07:38:45;17.33;;;9.07;;
75367;SDS011;63954;51.948;5.888;2022-11-20T07:41:12;19.73;;;10.07;;
75367;SDS011;63954;51.948;5.888;2022-11-20T07:43:41;21.98;;;11.32;;
75367;SDS011;63954;51.948;5.888;2022-11-20T07:46:09;16.88;;;9.13;;
75367;SDS011;63954;51.948;5.888;2022-11-20T07:48:36;17.98;;;9.07;;
75367;SDS011;63954;51.948;5.888;2022-11-20T07:51:03;23.35;;;13.75;;
75367;SDS011;63954;51.948;5.888;2022-11-20T07:53:32;23.40;;;13.82;;
75367;SDS011;63954;51.948;5.888;2022-11-20T07:56:00;23.92;;;12.15;;
75367;SDS011;63954;51.948;5.888;2022-11-20T07:58:28;16.98;;;9.30;;
75367;SDS011;63954;51.948;5.888;2022-11-20T08:00:58;27.48;;;13.75;;
75367;SDS011;63954;51.948;5.888;2022-11-20T08:03:30;20.20;;;10.52;;
75367;SDS011;63954;51.948;5.888;2022-11-20T08:05:58;19.02;;;10.95;;
75367;SDS011;63954;51.948;5.888;2022-11-20T08:08:26;23.20;;;11.73;;
75367;SDS011;63954;51.948;5.888;2022-11-20T08:10:55;23.35;;;11.73;;
75367;SDS011;63954;51.948;5.888;2022-11-20T08:13:43;21.65;;;10.02;;
75367;SDS011;63954;51.948;5.888;2022-11-20T08:16:28;25.92;;;12.75;;
75367;SDS011;63954;51.948;5.888;2022-11-20T08:18:55;16.85;;;9.18;;
75367;SDS011;63954;51.948;5.888;2022-11-20T08:21:23;23.17;;;12.05;;
75367;SDS011;63954;51.948;5.888;2022-11-20T08:23:50;19.55;;;9.75;;
75367;SDS011;63954;51.948;5.888;2022-11-20T08:26:21;26.27;;;13.38;;
75367;SDS011;63954;51.948;5.888;2022-11-20T08:28:49;20.48;;;11.32;;
75367;SDS011;63954;51.948;5.888;2022-11-20T08:31:19;26.45;;;14.60;;
75367;SDS011;63954;51.948;5.888;2022-11-20T08:33:47;27.60;;;13.82;;
75367;SDS011;63954;51.948;5.888;2022-11-20T08:36:14;26.15;;;12.73;;
75367;SDS011;63954;51.948;5.888;2022-11-20T08:38:42;23.20;;;13.38;;
75367;SDS011;63954;51.948;5.888;2022-11-20T08:41:13;21.75;;;11.90;;
75367;SDS011;63954;51.948;5.888;2022-11-20T08:43:53;25.63;;;13.63;;
75367;SDS011;63954;51.948;5.888;2022-11-20T08:46:21;24.40;;;12.00;;
75367;SDS011;63954;51.948;5.888;2022-11-20T08:48:52;23.38;;;12.43;;
75367;SDS011;63954;51.948;5.888;2022-11-20T08:51:19;18.08;;;9.60;;
75367;SDS011;63954;51.948;5.888;2022-11-20T08:53:47;26.17;;;13.63;;
75367;SDS011;63954;51.948;5.888;2022-11-20T08:56:15;26.55;;;14.35;;
75367;SDS011;63954;51.948;5.888;2022-11-20T08:58:43;27.05;;;13.95;;
75367;SDS011;63954;51.948;5.888;2022-11-20T09:01:11;18.13;;;9.88;;
75367;SDS011;63954;51.948;5.888;2022-11-20T09:03:39;25.60;;;12.43;;
75367;SDS011;63954;51.948;5.888;2022-11-20T09:06:06;26.48;;;13.30;;
75367;SDS011;63954;51.948;5.888;2022-11-20T09:08:34;27.13;;;13.50;;
75367;SDS011;63954;51.948;5.888;2022-11-20T09:11:02;24.70;;;13.32;;
75367;SDS011;63954;51.948;5.888;2022-11-20T09:13:30;24.83;;;13.15;;
75367;SDS011;63954;51.948;5.888;2022-11-20T09:15:59;18.95;;;10.88;;
75367;SDS011;63954;51.948;5.888;2022-11-20T09:18:29;20.33;;;11.48;;
75367;SDS011;63954;51.948;5.888;2022-11-20T09:20:57;18.25;;;10.18;;
75367;SDS011;63954;51.948;5.888;2022-11-20T09:23:25;22.88;;;12.00;;
75367;SDS011;63954;51.948;5.888;2022-11-20T09:25:53;21.58;;;10.30;;
75367;SDS011;63954;51.948;5.888;2022-11-20T09:28:25;20.30;;;12.00;;
75367;SDS011;63954;51.948;5.888;2022-11-20T09:30:52;23.67;;;13.13;;
75367;SDS011;63954;51.948;5.888;2022-11-20T09:33:19;16.98;;;9.82;;
75367;SDS011;63954;51.948;5.888;2022-11-20T09:35:47;16.73;;;9.23;;
75367;SDS011;63954;51.948;5.888;2022-11-20T09:38:15;20.52;;;10.70;;
75367;SDS011;63954;51.948;5.888;2022-11-20T09:40:44;23.05;;;12.45;;
75367;SDS011;63954;51.948;5.888;2022-11-20T09:43:17;23.17;;;14.00;;
75367;SDS011;63954;51.948;5.888;2022-11-20T09:45:50;25.27;;;12.05;;
75367;SDS011;63954;51.948;5.888;2022-11-20T09:48:32;25.52;;;13.35;;
75367;SDS011;63954;51.948;5.888;2022-11-20T09:51:13;26.00;;;12.98;;
75367;SDS011;63954;51.948;5.888;2022-11-20T09:56:02;20.48;;;10.75;;
75367;SDS011;63954;51.948;5.888;2022-11-20T09:58:32;17.52;;;10.10;;
75367;SDS011;63954;51.948;5.888;2022-11-20T10:01:08;28.60;;;14.13;;
75367;SDS011;63954;51.948;5.888;2022-11-20T10:03:41;24.38;;;12.60;;
75367;SDS011;63954;51.948;5.888;2022-11-20T10:06:17;27.00;;;13.70;;
75367;SDS011;63954;51.948;5.888;2022-11-20T10:08:47;27.58;;;14.52;;
75367;SDS011;63954;51.948;5.888;2022-11-20T10:11:24;21.23;;;10.82;;
75367;SDS011;63954;51.948;5.888;2022-11-20T10:14:00;22.55;;;12.27;;
75367;SDS011;63954;51.948;5.888;2022-11-20T10:16:40;25.83;;;12.77;;
75367;SDS011;63954;51.948;5.888;2022-11-20T10:19:19;24.73;;;13.60;;
75367;SDS011;63954;51.948;5.888;2022-11-20T10:21:55;22.00;;;12.43;;
75367;SDS011;63954;51.948;5.888;2022-11-20T10:24:42;21.30;;;11.93;;
75367;SDS011;63954;51.948;5.888;2022-11-20T10:27:22;17.83;;;9.98;;
75367;SDS011;63954;51.948;5.888;2022-11-20T10:30:08;19.15;;;10.15;;
75367;SDS011;63954;51.948;5.888;2022-11-20T10:32:37;25.95;;;14.02;;
75367;SDS011;63954;51.948;5.888;2022-11-20T10:35:07;24.42;;;13.48;;
75367;SDS011;63954;51.948;5.888;2022-11-20T10:40:19;22.55;;;11.98;;
75367;SDS011;63954;51.948;5.888;2022-11-20T10:42:53;20.60;;;11.73;;
75367;SDS011;63954;51.948;5.888;2022-11-20T10:45:30;29.48;;;15.05;;
75367;SDS011;63954;51.948;5.888;2022-11-20T10:48:07;19.55;;;9.98;;
75367;SDS011;63954;51.948;5.888;2022-11-20T10:50:40;19.73;;;10.68;;
75367;SDS011;63954;51.948;5.888;2022-11-20T10:53:16;23.95;;;13.32;;
75367;SDS011;63954;51.948;5.888;2022-11-20T10:58:25;18.58;;;10.98;;
75367;SDS011;63954;51.948;5.888;2022-11-20T11:01:04;19.17;;;11.80;;
75367;SDS011;63954;51.948;5.888;2022-11-20T11:03:32;30.70;;;16.52;;
75367;SDS011;63954;51.948;5.888;2022-11-20T11:06:02;25.75;;;14.93;;
75367;SDS011;63954;51.948;5.888;2022-11-20T11:08:35;24.42;;;14.00;;
75367;SDS011;63954;51.948;5.888;2022-11-20T11:11:07;23.50;;;12.80;;
75367;SDS011;63954;51.948;5.888;2022-11-20T11:13:46;31.30;;;17.10;;
75367;SDS011;63954;51.948;5.888;2022-11-20T11:16:19;25.27;;;13.55;;
75367;SDS011;63954;51.948;5.888;2022-11-20T11:18:47;27.58;;;15.65;;
75367;SDS011;63954;51.948;5.888;2022-11-20T11:21:19;29.80;;;15.10;;
75367;SDS011;63954;51.948;5.888;2022-11-20T11:23:57;29.15;;;14.90;;
75367;SDS011;63954;51.948;5.888;2022-11-20T11:26:27;32.35;;;16.83;;
75367;SDS011;63954;51.948;5.888;2022-11-20T11:28:57;26.05;;;14.23;;
75367;SDS011;63954;51.948;5.888;2022-11-20T11:31:25;25.65;;;14.68;;
75367;SDS011;63954;51.948;5.888;2022-11-20T11:34:05;28.08;;;14.95;;
75367;SDS011;63954;51.948;5.888;2022-11-20T11:36:32;27.10;;;14.20;;
75367;SDS011;63954;51.948;5.888;2022-11-20T11:39:02;25.77;;;13.65;;
75367;SDS011;63954;51.948;5.888;2022-11-20T11:41:32;24.92;;;13.13;;
75367;SDS011;63954;51.948;5.888;2022-11-20T11:44:12;28.88;;;15.00;;
75367;SDS011;63954;51.948;5.888;2022-11-20T11:47:02;25.13;;;13.45;;
75367;SDS011;63954;51.948;5.888;2022-11-20T11:49:31;24.35;;;12.80;;
75367;SDS011;63954;51.948;5.888;2022-11-20T11:52:02;21.23;;;12.98;;
75367;SDS011;63954;51.948;5.888;2022-11-20T11:54:38;26.05;;;13.00;;
75367;SDS011;63954;51.948;5.888;2022-11-20T11:57:12;18.30;;;10.18;;
75367;SDS011;63954;51.948;5.888;2022-11-20T11:59:49;23.40;;;12.73;;
75367;SDS011;63954;51.948;5.888;2022-11-20T12:02:35;24.27;;;13.35;;
75367;SDS011;63954;51.948;5.888;2022-11-20T12:05:09;27.50;;;13.80;;
75367;SDS011;63954;51.948;5.888;2022-11-20T12:07:43;29.27;;;13.20;;
75367;SDS011;63954;51.948;5.888;2022-11-20T12:10:16;20.75;;;11.52;;
75367;SDS011;63954;51.948;5.888;2022-11-20T12:12:51;21.15;;;11.63;;
75367;SDS011;63954;51.948;5.888;2022-11-20T12:15:30;22.95;;;13.05;;
75367;SDS011;63954;51.948;5.888;2022-11-20T12:18:00;24.15;;;14.98;;
75367;SDS011;63954;51.948;5.888;2022-11-20T12:20:29;25.88;;;15.38;;
75367;SDS011;63954;51.948;5.888;2022-11-20T12:23:02;26.10;;;15.55;;
75367;SDS011;63954;51.948;5.888;2022-11-20T12:25:36;27.00;;;16.83;;
75367;SDS011;63954;51.948;5.888;2022-11-20T12:28:14;26.95;;;15.43;;
75367;SDS011;63954;51.948;5.888;2022-11-20T12:31:04;29.25;;;15.05;;
75367;SDS011;63954;51.948;5.888;2022-11-20T12:34:00;27.45;;;16.40;;
75367;SDS011;63954;51.948;5.888;2022-11-20T12:36:40;25.48;;;15.00;;
75367;SDS011;63954;51.948;5.888;2022-11-20T12:39:19;31.25;;;16.95;;
75367;SDS011;63954;51.948;5.888;2022-11-20T12:42:13;28.48;;;16.23;;
75367;SDS011;63954;51.948;5.888;2022-11-20T12:45:14;30.60;;;18.10;;
75367;SDS011;63954;51.948;5.888;2022-11-20T12:48:17;27.30;;;16.48;;
75367;SDS011;63954;51.948;5.888;2022-11-20T12:51:05;24.65;;;13.50;;
75367;SDS011;63954;51.948;5.888;2022-11-20T12:53:53;27.92;;;15.15;;
75367;SDS011;63954;51.948;5.888;2022-11-20T12:56:35;25.13;;;13.80;;
75367;SDS011;63954;51.948;5.888;2022-11-20T12:59:18;29.85;;;17.13;;
75367;SDS011;63954;51.948;5.888;2022-11-20T13:01:57;24.75;;;12.82;;
75367;SDS011;63954;51.948;5.888;2022-11-20T13:04:42;25.85;;;15.18;;
75367;SDS011;63954;51.948;5.888;2022-11-20T13:07:22;31.60;;;19.40;;
75367;SDS011;63954;51.948;5.888;2022-11-20T13:09:53;27.70;;;15.88;;
75367;SDS011;63954;51.948;5.888;2022-11-20T13:12:24;33.05;;;18.25;;
75367;SDS011;63954;51.948;5.888;2022-11-20T13:14:58;32.38;;;18.67;;
75367;SDS011;63954;51.948;5.888;2022-11-20T13:17:38;31.33;;;19.23;;
75367;SDS011;63954;51.948;5.888;2022-11-20T13:25:26;37.67;;;20.33;;
75367;SDS011;63954;51.948;5.888;2022-11-20T13:30:55;31.77;;;17.55;;
75367;SDS011;63954;51.948;5.888;2022-11-20T13:33:23;34.90;;;19.05;;
75367;SDS011;63954;51.948;5.888;2022-11-20T13:35:59;33.03;;;19.42;;
75367;SDS011;63954;51.948;5.888;2022-11-20T13:38:27;37.38;;;22.65;;
75367;SDS011;63954;51.948;5.888;2022-11-20T13:41:07;30.30;;;16.02;;
75367;SDS011;63954;51.948;5.888;2022-11-20T13:43:48;30.48;;;17.35;;
75367;SDS011;63954;51.948;5.888;2022-11-20T13:46:16;37.22;;;20.77;;
75367;SDS011;63954;51.948;5.888;2022-11-20T13:48:50;34.38;;;18.38;;
75367;SDS011;63954;51.948;5.888;2022-11-20T13:51:28;38.10;;;20.75;;
75367;SDS011;63954;51.948;5.888;2022-11-20T13:57:10;36.78;;;20.08;;
75367;SDS011;63954;51.948;5.888;2022-11-20T13:59:53;38.92;;;19.75;;
75367;SDS011;63954;51.948;5.888;2022-11-20T14:02:25;37.40;;;19.70;;
75367;SDS011;63954;51.948;5.888;2022-11-20T14:04:55;35.47;;;19.60;;
75367;SDS011;63954;51.948;5.888;2022-11-20T14:07:27;45.45;;;22.52;;
75367;SDS011;63954;51.948;5.888;2022-11-20T14:10:02;35.67;;;19.10;;
75367;SDS011;63954;51.948;5.888;2022-11-20T14:12:32;44.22;;;22.55;;
75367;SDS011;63954;51.948;5.888;2022-11-20T14:15:00;36.78;;;20.60;;
75367;SDS011;63954;51.948;5.888;2022-11-20T14:17:29;40.38;;;20.80;;
75367;SDS011;63954;51.948;5.888;2022-11-20T14:19:58;39.58;;;21.52;;
75367;SDS011;63954;51.948;5.888;2022-11-20T14:22:29;40.65;;;21.42;;
75367;SDS011;63954;51.948;5.888;2022-11-20T14:25:06;42.95;;;20.75;;
75367;SDS011;63954;51.948;5.888;2022-11-20T14:27:47;41.58;;;21.30;;
75367;SDS011;63954;51.948;5.888;2022-11-20T14:30:19;41.95;;;20.25;;
75367;SDS011;63954;51.948;5.888;2022-11-20T14:32:48;42.85;;;21.38;;
75367;SDS011;63954;51.948;5.888;2022-11-20T14:35:18;44.78;;;24.55;;
75367;SDS011;63954;51.948;5.888;2022-11-20T14:37:49;38.72;;;19.75;;
75367;SDS011;63954;51.948;5.888;2022-11-20T14:40:24;28.45;;;15.13;;
75367;SDS011;63954;51.948;5.888;2022-11-20T14:42:53;47.70;;;22.58;;
75367;SDS011;63954;51.948;5.888;2022-11-20T14:45:21;44.00;;;22.60;;
75367;SDS011;63954;51.948;5.888;2022-11-20T14:47:49;42.75;;;21.40;;
75367;SDS011;63954;51.948;5.888;2022-11-20T14:50:19;43.05;;;21.75;;
75367;SDS011;63954;51.948;5.888;2022-11-20T14:52:54;47.17;;;24.08;;
75367;SDS011;63954;51.948;5.888;2022-11-20T14:55:25;45.80;;;22.88;;
75367;SDS011;63954;51.948;5.888;2022-11-20T14:57:55;45.85;;;21.85;;
75367;SDS011;63954;51.948;5.888;2022-11-20T15:00:23;44.97;;;21.60;;
75367;SDS011;63954;51.948;5.888;2022-11-20T15:02:51;43.45;;;22.45;;
75367;SDS011;63954;51.948;5.888;2022-11-20T15:05:20;37.90;;;19.38;;
75367;SDS011;63954;51.948;5.888;2022-11-20T15:07:49;49.47;;;23.90;;
75367;SDS011;63954;51.948;5.888;2022-11-20T15:10:23;42.97;;;21.38;;
75367;SDS011;63954;51.948;5.888;2022-11-20T15:12:52;44.83;;;22.02;;